• Join FlightAware (Why Join?)
  • Login
  • US Flag 
01:57AM EDT


 

Airport Tracker/Info


-or-


 

Live Flight TrackerFlight Track Log ✈ SWA1044 ✈ 11-Apr-2013 ✈ KMSY - KLAS

Flight Track Log - Related Links

Times and Time Zones

All times are in EDT time to prevent confusion due to time zone crossing. See the SWA1044 flight status page for this flight to view local times or setup timezone preferences in your user account.

Time Position Orientation Groundspeed Altitude Reporting Facility
EDT Latitude Longitude Course Direction KTS MPH feet Rate Location/Type
12:19PM 29.9742 -90.2564 204° Southwest 139 160 1,500  Level Houston Center
12:20PM 29.9483 -90.2656 197° South 155 178 2,900 2,640 Climbing Houston Center
12:20PM 29.9286 -90.2703 192° South 171 197 4,200 3,180 Climbing Houston Center
12:21PM 29.9000 -90.2803 197° South 168 193 6,200 3,180 Climbing Houston Center
12:22PM 29.8567 -90.3381 229° Southwest 197 227 10,100 3,300 Climbing Houston Center
12:23PM 29.8253 -90.3914 236° Southwest 201 231 13,100 2,220 Climbing Houston Center
12:24PM 29.7892 -90.4467 233° Southwest 213 245 14,700 1,260 Climbing Houston Center
12:25PM 29.7378 -90.5236 232° Southwest 296 341 15,800 1,740 Climbing Houston Center
12:26PM 29.6828 -90.6089 233° Southwest 328 377 18,400 2,460 Climbing Houston Center
12:27PM 29.6147 -90.7147 234° Southwest 341 392 21,000 2,220 Climbing Houston Center
12:28PM 29.5672 -90.8150 241° Southwest 370 426 23,000 1,860 Climbing Houston Center
12:29PM 29.6039 -90.9317 290° West 393 452 24,900 1,740 Climbing Houston Center
12:30PM 29.6606 -91.0508 299° West 417 480 26,600 1,680 Climbing Houston Center
12:31PM 29.7000 -91.1769 290° West 418 481 28,400 1,800 Climbing Houston Center
12:32PM 29.7022 -91.3067 271° West 406 467 30,400 1,980 Climbing Houston Center
12:33PM 29.6975 -91.4306 268° West 390 449 32,600 1,800 Climbing Houston Center
12:34PM 29.7631 -91.5639 300° West 423 487 34,200 1,320 Climbing Houston Center
12:36PM 29.8428 -91.6669 312° West 430 495 35,400 840 Climbing Houston Center
12:37PM 29.9056 -91.7825 302° West 408 470 36,000 240 Climbing Houston Center
12:38PM 29.9589 -91.8956 299° West 401 461 36,000  Level Houston Center
12:39PM 30.0131 -92.0083 299° West 402 463 36,000  Level Houston Center
12:40PM 30.0678 -92.1244 299° West 408 470 36,000  Level Houston Center
12:41PM 30.1219 -92.2406 298° West 412 474 36,000  Level Houston Center
12:42PM 30.1892 -92.3789 299° West 411 473 36,000  Level Houston Center
12:43PM 30.2436 -92.4947 299° West 411 473 36,000 600 Level Houston Center
12:44PM 30.2992 -92.6103 299° West 411 473 37,300 960 Climbing Houston Center
12:45PM 30.3522 -92.7242 298° West 405 466 38,000 300 Climbing Houston Center
12:46PM 30.4067 -92.8389 299° West 407 468 38,000  Level Houston Center
12:47PM 30.4606 -92.9547 298° West 410 472 38,000  Level Houston Center
12:48PM 30.5264 -93.0933 299° West 411 473 38,000  Level Houston Center
12:49PM 30.5803 -93.2097 298° West 412 474 38,000  Level Houston Center
12:50PM 30.6336 -93.3250 298° West 412 474 38,000  Level Houston Center
12:51PM 30.6867 -93.4406 298° West 411 473 38,000  Level Houston Center
12:52PM 30.7400 -93.5561 298° West 410 472 38,000  Level Houston Center
12:53PM 30.8033 -93.6953 298° West 410 472 38,000 -60 Level Houston Center
12:54PM 30.8572 -93.8103 299° West 408 470 37,900  Descending Houston Center
12:55PM 30.9100 -93.9261 298° West 407 468 38,000  Climbing Houston Center
12:56PM 30.9622 -94.0436 297° West 409 471 38,000  Level Houston Center
12:57PM 31.0189 -94.1669 298° West 409 471 38,000  Level Houston Center
12:58PM 31.0714 -94.2842 298° West 407 468 38,000  Level Houston Center
12:59PM 31.1239 -94.4019 298° West 410 472 38,000  Level Houston Center
01:00PM 31.1889 -94.5450 298° West 416 479 38,000  Level Houston Center
01:01PM 31.2394 -94.6583 298° West 418 481 38,000  Level Houston Center
01:02PM 31.2942 -94.7819 297° West 426 490 38,000  Level Houston Center
01:03PM 31.3489 -94.9047 298° West 431 496 38,000  Level Houston Center
01:04PM 31.4147 -95.0542 297° West 432 497 38,000  Level Houston Center
01:05PM 31.4697 -95.1789 297° West 434 499 38,000  Level Houston Center
01:06PM 31.5258 -95.3125 296° West 433 498 38,000  Level Fort Worth Center
01:07PM 31.5842 -95.4356 299° West 421 484 38,000  Level Fort Worth Center
01:08PM 31.6361 -95.5614 296° West 426 490 38,000  Level Fort Worth Center
01:09PM 31.6922 -95.6897 297° West 426 490 38,000  Level Fort Worth Center
01:10PM 31.7461 -95.8156 297° West 426 490 38,000  Level Fort Worth Center
01:11PM 31.7978 -95.9394 296° West 426 490 38,000  Level Fort Worth Center
01:12PM 31.8533 -96.0633 298° West 419 482 38,000  Level Fort Worth Center
01:13PM 31.9089 -96.1922 297° West 433 498 38,000  Level Fort Worth Center
01:14PM 31.9644 -96.3164 298° West 433 498 38,000  Level Fort Worth Center
01:15PM 32.0156 -96.4431 295° West 433 498 38,000  Level Fort Worth Center
01:16PM 32.0706 -96.5650 298° West 421 484 38,000  Level Fort Worth Center
01:17PM 32.1258 -96.6969 296° West 427 491 38,000  Level Fort Worth Center
01:18PM 32.1700 -96.8072 295° West 427 491 38,000  Level Fort Worth Center
01:19PM 32.2228 -96.9344 296° West 421 484 38,000  Level Fort Worth Center
01:20PM 32.2714 -97.0547 296° West 412 474 38,000  Level Fort Worth Center
01:21PM 32.3281 -97.1922 296° West 428 493 38,000  Level Fort Worth Center
01:22PM 32.3783 -97.3075 297° West 428 493 38,000  Level Fort Worth Center
01:23PM 32.4325 -97.4431 295° West 422 486 38,000  Level Fort Worth Center
01:24PM 32.4783 -97.5564 296° West 422 486 38,000  Level Fort Worth Center
01:25PM 32.5325 -97.6894 296° West 422 486 38,000  Level Fort Worth Center
01:26PM 32.5822 -97.8103 296° West 417 480 38,000  Level Fort Worth Center
01:27PM 32.6319 -97.9264 297° West 404 465 38,000  Level Fort Worth Center
01:28PM 32.6794 -98.0453 295° West 404 465 38,000  Level Fort Worth Center
01:29PM 32.7289 -98.1642 296° West 404 465 38,000  Level Fort Worth Center
01:30PM 32.7761 -98.2831 295° West 404 465 38,000  Level Fort Worth Center
01:31PM 32.8192 -98.3922 295° West 404 465 38,000  Level Fort Worth Center
01:32PM 32.8722 -98.5192 296° West 398 458 38,000  Level Fort Worth Center
01:33PM 32.9233 -98.6386 297° West 398 458 38,000  Level Fort Worth Center
01:34PM 32.9681 -98.7581 294° West 398 458 38,000  Level Fort Worth Center
01:35PM 33.0169 -98.8778 296° West 403 464 38,000  Level Fort Worth Center
01:36PM 33.0614 -98.9947 294° West 403 464 38,000  Level Fort Worth Center
01:37PM 33.1078 -99.1122 294° West 398 458 38,000  Level Fort Worth Center
01:38PM 33.1110 -99.1261 294° West  Level FlightAware Approximate
01:38PM 33.1561 -99.2297 296° West 398 458 38,000  Level Fort Worth Center
01:39PM 33.2003 -99.3475 294° West 398 458 38,000  Level Fort Worth Center
01:40PM 33.2486 -99.4678 296° West 398 458 38,000  Level Fort Worth Center
01:41PM 33.2925 -99.5856 294° West 398 458 38,000  Level Fort Worth Center
01:44PM 33.4136 -99.8908 295° West 390 449 38,000  Level Albuquerque Center
01:44PM 33.4319 -99.9422 293° West 398 458 38,000  Level Fort Worth Center
01:45PM 33.4753 -100.0606 294° West 398 458 38,000  Level Fort Worth Center
01:46PM 33.5208 -100.1792 295° West 393 452 38,000  Level Fort Worth Center
01:47PM 33.5661 -100.2978 295° West 393 452 38,000  Level Fort Worth Center
01:48PM 33.6094 -100.4139 294° West 388 447 38,000  Level Fort Worth Center
01:49PM 33.6525 -100.5300 294° West 388 447 38,000  Level Fort Worth Center
01:50PM 33.6975 -100.6442 295° West 381 438 38,000  Level Fort Worth Center
01:51PM 33.7367 -100.7453 295° West 381 438 38,000  Level Fort Worth Center
01:52PM 33.7833 -100.8722 294° West 381 438 38,000  Level Fort Worth Center
01:53PM 33.8239 -100.9886 293° West 381 438 38,000  Level Fort Worth Center
01:54PM 33.8683 -101.1031 295° West 376 433 38,000  Level Fort Worth Center
01:55PM 33.9131 -101.2200 295° West 377 434 38,000  Level Fort Worth Center
01:56PM 33.9533 -101.3319 293° West 377 434 38,000  Level Fort Worth Center
01:57PM 33.9975 -101.4517 294° West 377 434 38,000  Level Fort Worth Center
01:58PM 34.0378 -101.5639 293° West 382 440 38,000  Level Fort Worth Center
01:59PM 34.0778 -101.6761 293° West 371 427 38,000  Level Fort Worth Center
02:00PM 34.1197 -101.7911 294° West 371 427 38,000  Level Fort Worth Center
02:01PM 34.1594 -101.9036 293° West 363 418 38,000  Level Fort Worth Center
02:02PM 34.1992 -102.0136 294° West 363 418 38,000  Level Fort Worth Center
02:03PM 34.2411 -102.1264 294° West 369 425 38,000  Level Fort Worth Center
02:04PM 34.2508 -102.1497 297° West 363 418 38,000  Level Albuquerque Center
02:05PM 34.2908 -102.2622 293° West 362 417 38,000  Level Albuquerque Center
02:06PM 34.3308 -102.3761 293° West 365 420 38,000  Level Albuquerque Center
02:07PM 34.3714 -102.4886 294° West 364 419 38,000  Level Albuquerque Center
02:08PM 34.4128 -102.6031 294° West 368 423 38,000  Level Albuquerque Center
02:09PM 34.4528 -102.7183 293° West 370 426 38,000  Level Albuquerque Center
02:10PM 34.4964 -102.8453 293° West 373 429 38,000  Level Albuquerque Center
02:11PM 34.5150 -102.9697 280° West 370 426 38,000  Level Albuquerque Center
02:12PM 34.5383 -103.1125 281° West 368 423 38,000  Level Albuquerque Center
02:13PM 34.5567 -103.2358 280° West 368 423 38,000  Level Albuquerque Center
02:14PM 34.5756 -103.3583 281° West 367 422 38,000  Level Albuquerque Center
02:15PM 34.5942 -103.4808 280° West 366 421 38,000  Level Albuquerque Center
02:16PM 34.6117 -103.6047 280° West 368 423 38,000  Level Albuquerque Center
02:17PM 34.6303 -103.7283 280° West 367 422 38,000  Level Albuquerque Center
02:18PM 34.6483 -103.8511 280° West 367 422 38,000  Level Albuquerque Center
02:19PM 34.6656 -103.9750 280° West 368 423 38,000  Level Albuquerque Center
02:20PM 34.6867 -104.1192 280° West 367 422 38,000  Level Albuquerque Center
02:21PM 34.7039 -104.2425 280° West 367 422 38,000  Level Albuquerque Center
02:22PM 34.7225 -104.3658 280° West 366 421 38,000  Level Albuquerque Center
02:23PM 34.7386 -104.4897 279° West 367 422 38,000  Level Albuquerque Center
02:24PM 34.7572 -104.6136 280° West 367 422 38,000  Level Albuquerque Center
02:25PM 34.7750 -104.7394 280° West 372 428 38,000  Level Albuquerque Center
02:26PM 34.7914 -104.8642 279° West 370 426 38,000  Level Albuquerque Center
02:27PM 34.8100 -104.9900 280° West 372 428 38,000  Level Albuquerque Center
02:28PM 34.8269 -105.1175 279° West 376 433 38,000  Level Albuquerque Center
02:30PM 34.8472 -105.2669 279° West 378 435 38,000  Level Albuquerque Center
02:31PM 34.8658 -105.3956 280° West 381 438 38,000  Level Albuquerque Center
02:32PM 34.8817 -105.5228 279° West 378 435 38,000  Level Albuquerque Center
02:33PM 34.8989 -105.6486 280° West 375 432 38,000  Level Albuquerque Center
02:34PM 34.9156 -105.7742 279° West 374 430 38,000  Level Albuquerque Center
02:35PM 34.9303 -105.9017 278° West 372 428 38,000  Level Albuquerque Center
02:36PM 34.9458 -106.0256 279° West 371 427 38,000  Level Albuquerque Center
02:37PM 34.9614 -106.1478 279° West 368 423 38,000  Level Albuquerque Center
02:38PM 34.9764 -106.2694 279° West 365 420 38,000  Level Albuquerque Center
02:39PM 34.9919 -106.3936 279° West 369 425 38,000  Level Albuquerque Center
02:40PM 35.0100 -106.5425 278° West 367 422 38,000  Level Albuquerque Center
02:41PM 35.0239 -106.6647 278° West 377 434 38,000  Level Albuquerque Center
02:42PM 35.0394 -106.8047 278° West 374 430 38,000  Level Albuquerque Center
02:43PM 35.0669 -106.9169 287° West 362 417 38,000  Level Albuquerque Center
02:44PM 35.0931 -107.0353 285° West 374 430 38,000  Level Albuquerque Center
02:45PM 35.1231 -107.1733 285° West 378 435 38,000  Level Albuquerque Center
02:46PM 35.1481 -107.2981 284° West 385 443 38,000  Level Albuquerque Center
02:47PM 35.1650 -107.4228 279° West 375 432 38,000  Level Albuquerque Center
02:48PM 35.1783 -107.5567 277° West 375 432 38,000  Level Albuquerque Center
02:49PM 35.1919 -107.6961 277° West 372 428 38,000  Level Albuquerque Center
02:50PM 35.2044 -107.8167 277° West 372 428 38,000  Level Albuquerque Center
02:51PM 35.2156 -107.9414 276° West 381 438 38,000  Level Albuquerque Center
02:52PM 35.2297 -108.0833 277° West 378 435 38,000  Level Albuquerque Center
02:53PM 35.2419 -108.2047 277° West 376 433 38,000  Level Albuquerque Center
02:54PM 35.2542 -108.3489 276° West 379 436 38,000  Level Albuquerque Center
02:55PM 35.2661 -108.4708 277° West 377 434 38,000  Level Albuquerque Center
02:56PM 35.2794 -108.6122 277° West 375 432 38,000  Level Albuquerque Center
02:57PM 35.2903 -108.7339 276° West 374 430 38,000  Level Albuquerque Center
02:58PM 35.3044 -108.8758 277° West 375 432 38,000  Level Albuquerque Center
02:59PM 35.3144 -108.9975 276° West 375 432 38,000  Level Albuquerque Center
03:00PM 35.3250 -109.1208 276° West 378 435 38,000  Level Albuquerque Center
03:01PM 35.3378 -109.2661 276° West 381 438 38,000  Level Albuquerque Center
03:02PM 35.3483 -109.3883 276° West 378 435 38,000  Level Albuquerque Center
03:04PM 35.3594 -109.5311 275° West 377 434 38,000  Level Albuquerque Center
03:05PM 35.3708 -109.6567 276° West 382 440 38,000  Level Albuquerque Center
03:06PM 35.3803 -109.7803 275° West 381 438 38,000  Level Albuquerque Center
03:07PM 35.3917 -109.9239 276° West 379 436 38,000  Level Albuquerque Center
03:08PM 35.4003 -110.0469 275° West 379 436 38,000  Level Albuquerque Center
03:09PM 35.4100 -110.1906 275° West 379 436 38,000  Level Albuquerque Center
03:10PM 35.4178 -110.3144 274° West 380 437 38,000  Level Albuquerque Center
03:11PM 35.4303 -110.4600 276° West 382 440 38,000  Level Albuquerque Center
03:12PM 35.4394 -110.5836 275° West 382 440 38,000  Level Albuquerque Center
03:13PM 35.4508 -110.7292 276° West 383 441 38,000  Level Albuquerque Center
03:14PM 35.4589 -110.8547 275° West 385 443 38,000  Level Albuquerque Center
03:15PM 35.4683 -110.9797 275° West 385 443 38,000  Level Albuquerque Center
03:16PM 35.4781 -111.1289 275° West 390 449 38,000  Level Albuquerque Center
03:17PM 35.4881 -111.2564 276° West 391 450 38,000 -720 Level Albuquerque Center
03:18PM 35.4992 -111.4022 275° West 387 445 36,600 -1,860 Descending Albuquerque Center
03:19PM 35.5069 -111.5375 274° West 386 444 34,200 -2,100 Descending Albuquerque Center
03:20PM 35.5158 -111.6572 275° West 366 421 32,300 -1,860 Descending Albuquerque Center
03:21PM 35.5225 -111.7714 274° West 346 398 30,400 -1,140 Descending Albuquerque Center
03:22PM 35.5303 -111.8819 275° West 333 383 30,000 -240 Descending Albuquerque Center
03:23PM 35.5372 -111.9975 274° West 337 388 30,000  Level Albuquerque Center
03:24PM 35.5442 -112.1119 274° West 340 391 30,000  Level Albuquerque Center
03:25PM 35.5508 -112.2050 275° West 341 392 30,000  Level Los Angeles Center
03:26PM 35.5589 -112.3425 274° West 340 391 30,000  Level Los Angeles Center
03:27PM 35.5653 -112.4561 274° West 338 389 30,000  Level Los Angeles Center
03:28PM 35.5719 -112.5703 274° West 338 389 30,000  Level Los Angeles Center
03:29PM 35.5794 -112.6850 275° West 336 387 30,000  Level Los Angeles Center
03:30PM 35.5878 -112.8358 274° West 377 434 30,000  Level Los Angeles Center
03:31PM 35.5947 -112.9700 274° West 380 437 30,000  Level Los Angeles Center
03:32PM 35.6011 -113.0997 274° West 380 437 30,000 -420 Level Los Angeles Center
03:33PM 35.6081 -113.2297 274° West 381 438 29,200 -960 Descending Los Angeles Center
03:34PM 35.6153 -113.3639 274° West 373 429 28,100 -1,080 Descending Los Angeles Center
03:35PM 35.6219 -113.4875 274° West 366 421 27,000 -1,560 Descending Los Angeles Center
03:36PM 35.6319 -113.6058 276° West 354 407 24,900 -2,100 Descending Los Angeles Center
03:37PM 35.6503 -113.7219 281° West 348 400 22,700 -2,100 Descending Los Angeles Center
03:38PM 35.6669 -113.8400 280° West 353 406 20,600 -2,280 Descending Los Angeles Center
03:39PM 35.6858 -113.9769 280° West 339 390 18,000 -2,280 Descending Los Angeles Center
03:40PM 35.7008 -114.0886 279° West 334 384 16,000 -2,040 Descending Los Angeles Center
03:42PM 35.7172 -114.2019 280° West 340 391 13,900 -1,800 Descending Los Angeles Center
03:43PM 35.7328 -114.3164 280° West 340 391 12,300 -960 Descending Los Angeles Center
03:44PM 35.7906 -114.4061 308° West 309 356 12,000 -180 Descending Los Angeles Center
03:45PM 35.8633 -114.4389 340° North 299 344 12,000 -720 Level Los Angeles Center
03:46PM 35.9506 -114.4811 339° North 294 338 10,600 -1,020 Descending Los Angeles Center
03:47PM 36.0097 -114.5236 330° Northwest 289 333 9,900 -900 Descending Los Angeles Center
03:48PM 36.0397 -114.6186 291° West 275 316 8,900 -1,020 Descending Los Angeles Center
03:49PM 36.0658 -114.7003 292° West 276 318 7,900 -840 Descending Los Angeles Center
03:50PM 36.0753 -114.7986 277° West 252 290 7,300 -1,080 Descending Los Angeles Center
03:51PM 36.0739 -114.8814 269° West 242 278 5,900 -1,320 Descending Los Angeles Center
03:52PM 36.0717 -114.9700 268° West 225 259 4,500 -1,200 Descending Los Angeles Center
03:53PM 36.0739 -115.0386 272° West 188 216 3,400 -960 Descending Los Angeles Center
03:54PM 36.0725 -115.0922 268° West 148 170 2,600 -720 Descending Los Angeles Center
03:55PM 36.0747 -115.1367 274° West 157 181 1,900 -660 Descending Los Angeles Center
03:57PM 36.0667 -115.1500 270° West  Level FlightAware Approximate